Time;durP1;ratioP1;P1;durP2;ratioP2;P2;SDS_P1;SDS_P2;PMS_P1;PMS_P2;Temp;Humidity;BMP_temperature;BMP_pressure;BME280_temperature;BME280_humidity;BME280_pressure;Samples;Min_cycle;Max_cycle;Signal;HPM_P1;HPM_P2
2022/11/30 00:00:57;;;;;;;3.25;1.85;;;;;;;4.39;93.06;96700.03;5135710;27;20075;-61
2022/11/30 00:03:25;;;;;;;2.13;1.52;;;;;;;4.34;92.76;96700.09;5135562;27;20100;-61
2022/11/30 00:05:52;;;;;;;1.92;1.65;;;;;;;4.39;92.85;96703.50;5135543;27;20500;-62
2022/11/30 00:08:21;;;;;;;2.42;1.90;;;;;;;4.41;92.76;96700.88;5135655;27;20104;-62
2022/11/30 00:10:48;;;;;;;1.83;1.60;;;;;;;4.40;93.08;96701.78;5135390;27;20067;-62
2022/11/30 00:13:15;;;;;;;1.88;1.52;;;;;;;4.41;92.75;96693.13;5135402;27;20047;-62
2022/11/30 00:15:42;;;;;;;3.72;1.77;;;;;;;4.43;92.79;96702.56;5135158;27;20504;-61
2022/11/30 00:18:09;;;;;;;3.55;1.80;;;;;;;4.46;92.95;96699.13;5135088;27;20047;-62
2022/11/30 00:20:37;;;;;;;3.22;1.67;;;;;;;4.49;92.67;96701.66;5135249;27;20444;-61
2022/11/30 00:23:04;;;;;;;2.67;1.60;;;;;;;4.51;92.23;96696.44;5135224;27;20104;-61
2022/11/30 00:25:32;;;;;;;2.10;1.52;;;;;;;4.53;92.25;96700.75;5135181;27;20041;-61
2022/11/30 00:28:01;;;;;;;2.83;1.67;;;;;;;4.53;92.25;96697.28;5135047;27;20043;-61
2022/11/30 00:30:28;;;;;;;2.92;1.90;;;;;;;4.51;92.31;96697.31;5134920;27;20082;-62
2022/11/30 00:32:56;;;;;;;1.85;1.50;;;;;;;4.54;92.59;96696.41;5135090;27;20141;-62
2022/11/30 00:35:23;;;;;;;2.25;2.05;;;;;;;4.57;92.41;96688.59;5134922;27;20533;-62
2022/11/30 00:37:50;;;;;;;2.33;2.00;;;;;;;4.61;92.46;96687.69;5134881;27;20071;-61
2022/11/30 00:40:18;;;;;;;2.17;1.98;;;;;;;4.63;92.16;96687.66;5134887;27;20046;-62
2022/11/30 00:42:46;;;;;;;2.30;2.03;;;;;;;4.65;92.14;96686.78;5134813;27;20047;-61
2022/11/30 00:45:13;;;;;;;3.10;2.10;;;;;;;4.68;92.22;96684.19;5134895;27;20078;-62
2022/11/30 00:47:40;;;;;;;2.00;1.73;;;;;;;4.71;91.52;96680.69;5134871;27;20129;-62
2022/11/30 00:50:08;;;;;;;1.83;1.73;;;;;;;4.72;91.80;96681.53;5133856;27;20059;-62
2022/11/30 00:52:35;;;;;;;2.00;1.80;;;;;;;4.68;92.28;96673.81;5134678;27;20047;-61
2022/11/30 00:55:02;;;;;;;2.15;1.90;;;;;;;4.62;91.68;96673.00;5134643;27;20071;-61
2022/11/30 00:57:29;;;;;;;2.33;2.13;;;;;;;4.64;92.19;96671.28;5134421;27;20461;-61
2022/11/30 00:59:57;;;;;;;3.17;1.98;;;;;;;4.64;91.50;96671.28;5134535;27;20130;-61
2022/11/30 01:02:25;;;;;;;1.85;1.75;;;;;;;4.64;91.61;96669.50;5134524;27;20463;-61
2022/11/30 01:04:51;;;;;;;3.65;2.03;;;;;;;4.63;91.64;96672.13;5134463;27;20043;-61
2022/11/30 01:07:19;;;;;;;2.33;1.83;;;;;;;4.67;90.66;96672.06;5134463;27;20093;-62
2022/11/30 01:09:46;;;;;;;2.22;1.70;;;;;;;4.59;90.61;96668.72;5134472;27;20115;-62
2022/11/30 01:12:12;;;;;;;2.42;2.20;;;;;;;4.58;91.31;96663.56;5134424;27;20047;-61
2022/11/30 01:14:39;;;;;;;3.00;1.75;;;;;;;4.54;91.44;96668.78;5134413;27;20127;-61
2022/11/30 01:17:08;;;;;;;2.00;1.83;;;;;;;4.53;91.40;96659.31;5134256;27;20053;-62
2022/11/30 01:19:35;;;;;;;2.42;2.22;;;;;;;4.48;91.67;96662.81;5134128;27;20108;-62
2022/11/30 01:22:02;;;;;;;2.53;2.00;;;;;;;4.51;92.26;96661.03;5134202;27;20044;-61
2022/11/30 01:24:29;;;;;;;2.53;2.08;;;;;;;4.53;92.34;96663.63;5134247;27;20092;-61
2022/11/30 01:26:56;;;;;;;2.45;1.90;;;;;;;4.47;92.16;96667.13;5134130;27;20047;-62
2022/11/30 01:29:23;;;;;;;2.17;1.98;;;;;;;4.51;92.63;96663.63;5134037;27;20545;-61
2022/11/30 01:31:50;;;;;;;2.25;1.95;;;;;;;4.55;92.43;96665.31;5134191;27;20097;-61
2022/11/30 01:34:18;;;;;;;2.35;2.05;;;;;;;4.54;92.20;96670.50;5134025;27;20057;-62
2022/11/30 01:36:47;;;;;;;2.13;1.92;;;;;;;4.50;92.92;96663.66;5134226;27;20094;-61
2022/11/30 01:39:14;;;;;;;3.55;2.03;;;;;;;4.48;92.75;96666.25;5134115;27;20053;-62
2022/11/30 01:41:41;;;;;;;2.00;1.70;;;;;;;4.47;92.96;96672.31;5134087;27;20083;-61
2022/11/30 01:44:47;;;;;;;2.42;2.00;;;;;;;4.51;93.49;96665.34;5134024;27;20082;-61
2022/11/30 01:47:14;;;;;;;2.40;2.05;;;;;;;4.52;93.27;96662.75;5133979;27;20047;-62
2022/11/30 01:49:47;;;;;;;2.85;2.10;;;;;;;4.53;93.34;96661.88;5133792;27;20625;-62
2022/11/30 01:52:19;;;;;;;3.30;2.10;;;;;;;4.52;93.48;96657.56;5133967;27;20104;-62
2022/11/30 01:54:49;;;;;;;3.40;2.45;;;;;;;4.48;93.85;96655.06;5133935;27;20043;-61
2022/11/30 01:57:21;;;;;;;3.92;2.25;;;;;;;4.52;93.72;96657.56;5133917;27;20104;-62
2022/11/30 01:59:50;;;;;;;3.10;2.45;;;;;;;4.50;93.96;96658.47;5134017;27;20122;-61
2022/11/30 02:02:20;;;;;;;2.70;1.95;;;;;;;4.55;93.83;96648.91;5135969;27;20121;-61
2022/11/30 02:04:49;;;;;;;2.15;1.95;;;;;;;4.53;93.51;96648.94;5138029;27;20068;-62
2022/11/30 02:07:16;;;;;;;2.80;1.92;;;;;;;4.53;93.73;96656.72;5137937;27;20047;-60
2022/11/30 02:09:45;;;;;;;3.85;2.20;;;;;;;4.51;93.68;96655.00;5137671;27;20118;-62
2022/11/30 02:12:20;;;;;;;2.33;1.98;;;;;;;4.50;93.52;96650.69;5137846;27;20096;-62
2022/11/30 02:14:52;;;;;;;2.33;1.90;;;;;;;4.54;93.19;96650.66;5137783;27;20085;-61
2022/11/30 02:17:28;;;;;;;2.10;1.90;;;;;;;4.58;93.60;96650.59;5137740;27;20134;-61
2022/11/30 02:20:34;;;;;;;2.13;1.92;;;;;;;4.54;92.81;96649.78;5137532;27;20039;-61
2022/11/30 02:23:23;;;;;;;2.40;2.03;;;;;;;4.53;92.77;96653.25;5137552;27;20047;-61
2022/11/30 02:26:02;;;;;;;2.20;1.83;;;;;;;4.55;92.84;96654.09;5137584;27;20500;-62
2022/11/30 02:29:04;;;;;;;2.88;2.15;;;;;;;4.58;92.63;96646.28;5137480;27;20051;-62
2022/11/30 02:31:40;;;;;;;2.90;2.05;;;;;;;4.49;93.04;96642.06;5137268;27;20047;-61
2022/11/30 02:34:10;;;;;;;2.65;1.83;;;;;;;4.51;92.15;96636.84;5137427;27;20112;-62
2022/11/30 02:36:38;;;;;;;1.77;1.67;;;;;;;4.54;92.89;96637.69;5137326;27;20127;-62
2022/11/30 02:39:05;;;;;;;1.77;1.58;;;;;;;4.53;92.31;96650.66;5137291;27;20464;-62
2022/11/30 02:41:37;;;;;;;2.08;1.88;;;;;;;4.53;92.16;96648.94;5137217;27;20043;-62
2022/11/30 02:44:08;;;;;;;3.40;1.40;;;;;;;4.59;91.98;96642.81;5137223;27;20134;-61
2022/11/30 02:46:47;;;;;;;2.80;1.95;;;;;;;4.59;91.61;96647.13;5137195;27;20043;-61
2022/11/30 02:49:20;;;;;;;1.85;1.70;;;;;;;4.63;91.78;96651.38;5137044;27;20082;-61
2022/11/30 02:51:49;;;;;;;2.33;1.60;;;;;;;4.63;90.98;96651.38;5136995;27;20059;-62
2022/11/30 02:54:17;;;;;;;2.33;1.52;;;;;;;4.66;90.65;96656.53;5136938;27;20044;-61
2022/11/30 02:56:44;;;;;;;2.35;1.80;;;;;;;4.67;91.13;96653.09;5136976;27;20130;-61
2022/11/30 02:59:13;;;;;;;1.70;1.60;;;;;;;4.69;90.96;96656.50;5136937;27;20133;-61
2022/11/30 03:01:41;;;;;;;2.03;1.67;;;;;;;4.69;90.56;96659.09;5136888;27;20092;-62
2022/11/30 03:04:08;;;;;;;2.10;1.35;;;;;;;4.76;90.61;96657.31;5136813;27;20054;-62
2022/11/30 03:06:35;;;;;;;1.55;1.45;;;;;;;4.77;89.63;96656.41;5136687;27;20039;-62
2022/11/30 03:09:02;;;;;;;1.50;1.33;;;;;;;4.76;90.06;96659.88;5136601;27;20055;-62
2022/11/30 03:11:29;;;;;;;1.50;1.40;;;;;;;4.80;89.70;96664.16;5136685;27;20153;-62
2022/11/30 03:13:56;;;;;;;1.58;1.48;;;;;;;4.79;89.33;96667.63;5135792;27;20047;-62
2022/11/30 03:16:25;;;;;;;2.75;1.73;;;;;;;4.79;88.79;96668.47;5136664;27;20185;-62
2022/11/30 03:18:52;;;;;;;2.63;1.60;;;;;;;4.81;89.28;96663.25;5136217;27;20127;-61
2022/11/30 03:21:19;;;;;;;1.77;1.65;;;;;;;4.78;88.08;96666.75;5136505;27;20404;-62
2022/11/30 03:23:46;;;;;;;2.17;1.38;;;;;;;4.77;89.12;96669.38;5136434;27;20054;-61
2022/11/30 03:26:13;;;;;;;2.25;1.83;;;;;;;4.79;88.83;96672.81;5136304;27;20047;-62
2022/11/30 03:28:40;;;;;;;1.63;1.40;;;;;;;4.74;88.53;96666.81;5136406;27;20047;-62
2022/11/30 03:31:10;;;;;;;1.60;1.33;;;;;;;4.73;89.11;96670.28;5136227;27;20473;-62
2022/11/30 03:33:39;;;;;;;1.70;1.60;;;;;;;4.81;88.70;96668.44;5136216;27;20047;-62
2022/11/30 03:36:09;;;;;;;4.05;1.67;;;;;;;4.80;88.59;96670.19;5136242;27;20047;-61
2022/11/30 03:38:36;;;;;;;1.67;1.58;;;;;;;4.79;89.02;96665.88;5136089;27;20043;-62
2022/11/30 03:41:05;;;;;;;1.70;1.52;;;;;;;4.82;88.78;96670.19;5136113;27;20043;-62
2022/11/30 03:43:33;;;;;;;1.63;1.48;;;;;;;4.88;88.89;96674.44;5136017;27;20043;-61
2022/11/30 03:46:00;;;;;;;1.60;1.50;;;;;;;4.85;89.03;96672.72;5136049;27;20477;-61
2022/11/30 03:48:27;;;;;;;2.28;1.58;;;;;;;4.86;88.67;96674.44;5136024;27;20477;-62
2022/11/30 03:50:55;;;;;;;1.35;1.25;;;;;;;4.84;88.94;96676.19;5135793;27;20108;-61
2022/11/30 03:53:23;;;;;;;1.67;1.50;;;;;;;4.91;88.72;96671.78;5135865;27;20039;-61
2022/11/30 03:55:53;;;;;;;1.63;1.50;;;;;;;4.91;88.49;96679.56;5135802;27;20039;-61
2022/11/30 03:58:20;;;;;;;1.30;1.20;;;;;;;4.88;88.40;96683.03;5135712;27;20096;-62
2022/11/30 04:00:47;;;;;;;2.00;1.65;;;;;;;4.87;88.51;96681.34;5135719;27;20126;-61
2022/11/30 04:03:14;;;;;;;1.25;1.17;;;;;;;4.89;88.60;96683.91;5135556;27;20047;-61
2022/11/30 04:05:41;;;;;;;1.48;1.33;;;;;;;4.83;88.12;96682.25;5135530;27;20043;-62
2022/11/30 04:08:10;;;;;;;1.67;1.58;;;;;;;4.88;88.40;96677.03;5135576;27;20039;-62
2022/11/30 04:10:37;;;;;;;5.93;1.70;;;;;;;4.89;88.72;96683.91;5135392;27;20051;-62
2022/11/30 04:13:04;;;;;;;1.55;1.45;;;;;;;4.90;88.74;96693.38;5135624;27;20043;-62
2022/11/30 04:15:31;;;;;;;1.35;1.25;;;;;;;4.90;87.78;96693.38;5135304;27;20442;-62
2022/11/30 04:17:58;;;;;;;16.83;10.60;;;;;;;4.88;87.94;96695.16;5135046;27;20488;-62
2022/11/30 04:20:25;;;;;;;4.47;3.13;;;;;;;4.93;87.93;96698.53;5135341;27;20050;-62
2022/11/30 04:22:52;;;;;;;1.90;1.65;;;;;;;4.92;87.67;96702.88;5135254;27;20461;-62
2022/11/30 04:25:21;;;;;;;1.42;1.33;;;;;;;4.90;87.60;96706.34;5134006;27;20400;-61
2022/11/30 04:27:48;;;;;;;1.85;1.60;;;;;;;4.89;87.74;96707.25;5135219;27;20083;-61
2022/11/30 04:30:16;;;;;;;1.83;1.73;;;;;;;4.90;88.25;96714.13;5135112;27;20133;-61
2022/11/30 04:32:43;;;;;;;1.75;1.50;;;;;;;4.90;87.97;96706.34;5134923;27;20138;-61
2022/11/30 04:35:11;;;;;;;1.77;1.58;;;;;;;4.90;88.19;96709.81;5134951;27;20047;-61
2022/11/30 04:37:38;;;;;;;2.00;1.80;;;;;;;4.91;88.32;96708.94;5134907;27;20043;-61
2022/11/30 04:40:07;;;;;;;4.43;2.30;;;;;;;4.87;88.38;96714.16;5135049;27;20069;-62
2022/11/30 04:42:35;;;;;;;1.50;1.40;;;;;;;4.84;88.51;96716.81;5134934;27;20476;-61
2022/11/30 04:45:02;;;;;;;2.55;1.60;;;;;;;4.85;89.09;96721.97;5134835;27;20047;-62
2022/11/30 04:47:30;;;;;;;1.23;1.13;;;;;;;4.84;88.41;96727.19;5134727;27;20404;-61
2022/11/30 04:49:57;;;;;;;1.95;1.23;;;;;;;4.84;88.23;96730.63;5134736;27;20047;-61
2022/11/30 04:52:24;;;;;;;1.38;1.27;;;;;;;4.85;87.78;96736.69;5134597;27;20488;-61
2022/11/30 04:54:51;;;;;;;2.20;1.40;;;;;;;4.85;88.00;96741.88;5134643;27;20043;-61
2022/11/30 04:57:19;;;;;;;2.35;1.90;;;;;;;4.85;87.98;96729.75;5134659;27;20039;-61
2022/11/30 04:59:47;;;;;;;3.78;2.30;;;;;;;4.82;88.14;96739.31;5134628;27;20039;-61
2022/11/30 05:02:15;;;;;;;2.33;2.10;;;;;;;4.79;88.83;96732.44;5134700;27;20134;-61
2022/11/30 05:04:42;;;;;;;2.00;1.80;;;;;;;4.74;88.59;96732.47;5134379;27;20411;-62
2022/11/30 05:07:09;;;;;;;2.45;1.95;;;;;;;4.79;88.92;96727.25;5134652;27;20127;-62
2022/11/30 05:09:36;;;;;;;2.85;2.03;;;;;;;4.83;88.83;96728.91;5134617;27;20076;-62
2022/11/30 05:12:03;;;;;;;1.65;1.55;;;;;;;4.78;89.10;96734.16;5134370;27;20047;-61
2022/11/30 05:14:31;;;;;;;1.70;1.60;;;;;;;4.70;88.67;96738.59;5134528;27;20065;-62
2022/11/30 05:16:59;;;;;;;1.60;1.50;;;;;;;4.73;88.97;96742.88;5134373;27;20100;-61
2022/11/30 05:19:27;;;;;;;1.63;1.52;;;;;;;4.70;89.15;96741.16;5134128;27;20066;-61
2022/11/30 05:21:54;;;;;;;1.75;1.52;;;;;;;4.64;89.04;96746.41;5134307;27;20047;-62
2022/11/30 05:24:21;;;;;;;1.98;1.77;;;;;;;4.59;89.39;96738.69;5134278;27;20088;-62
2022/11/30 05:26:48;;;;;;;1.50;1.40;;;;;;;4.66;89.74;96740.34;5134272;27;20126;-62
2022/11/30 05:29:15;;;;;;;2.45;1.45;;;;;;;4.70;89.48;96741.16;5134250;27;20051;-61
2022/11/30 05:31:42;;;;;;;2.15;1.77;;;;;;;4.72;89.37;96743.75;5134172;27;20480;-61
2022/11/30 05:34:10;;;;;;;1.83;1.73;;;;;;;4.71;89.11;96747.19;5134281;27;20047;-61
2022/11/30 05:36:37;;;;;;;1.98;1.42;;;;;;;4.73;89.20;96748.88;5133687;27;20103;-61
2022/11/30 05:39:05;;;;;;;3.03;2.30;;;;;;;4.70;89.18;96748.06;5134052;27;20150;-61
2022/11/30 05:41:32;;;;;;;1.75;1.63;;;;;;;4.64;88.95;96743.81;5133978;27;20055;-61
2022/11/30 05:43:59;;;;;;;1.60;1.40;;;;;;;4.61;88.86;96754.22;5134083;27;20082;-62
2022/11/30 05:46:26;;;;;;;1.55;1.42;;;;;;;4.58;89.09;96754.25;5133916;27;20047;-61
2022/11/30 05:48:53;;;;;;;2.33;1.77;;;;;;;4.58;89.59;96757.72;5134068;27;20465;-62
2022/11/30 05:51:23;;;;;;;1.65;1.55;;;;;;;4.52;90.02;96752.59;5133827;27;20047;-61
2022/11/30 05:53:50;;;;;;;2.17;1.40;;;;;;;4.50;89.46;96762.09;5134055;27;20097;-62
2022/11/30 05:56:19;;;;;;;1.33;1.23;;;;;;;4.44;89.60;96765.63;5134004;27;20108;-62
2022/11/30 05:58:47;;;;;;;1.80;1.70;;;;;;;4.38;90.07;96773.44;5133949;27;20053;-61
2022/11/30 06:01:19;;;;;;;1.38;1.25;;;;;;;4.36;90.23;96770.88;5133969;27;20069;-61
2022/11/30 06:03:47;;;;;;;1.92;1.63;;;;;;;4.32;90.41;96760.53;5133843;27;20049;-62
2022/11/30 06:06:14;;;;;;;1.65;1.40;;;;;;;4.30;90.77;96758.84;5133891;27;20043;-61
2022/11/30 06:08:42;;;;;;;3.97;1.50;;;;;;;4.33;90.50;96757.09;5133953;27;20047;-62
2022/11/30 06:11:09;;;;;;;1.40;1.30;;;;;;;4.26;90.88;96751.97;5133659;27;20043;-61
2022/11/30 06:13:37;;;;;;;2.38;1.63;;;;;;;4.24;90.33;96752.88;5133764;27;20081;-61
2022/11/30 06:16:05;;;;;;;1.67;1.40;;;;;;;4.24;90.35;96758.88;5133737;27;20129;-61
2022/11/30 06:18:32;;;;;;;1.60;1.50;;;;;;;4.24;90.34;96771.84;5133418;27;20083;-61
2022/11/30 06:21:01;;;;;;;1.65;1.20;;;;;;;4.22;89.90;96773.59;5133664;27;20408;-61
2022/11/30 06:23:28;;;;;;;1.80;1.25;;;;;;;4.28;90.19;96773.53;5133750;27;20051;-62
2022/11/30 06:25:57;;;;;;;1.55;1.40;;;;;;;4.32;89.78;96787.31;5133662;27;20070;-61
2022/11/30 06:28:24;;;;;;;1.10;1.00;;;;;;;4.29;90.10;96780.44;5133624;27;20057;-61
2022/11/30 06:30:51;;;;;;;1.58;1.48;;;;;;;4.30;90.32;96776.09;5133670;27;20096;-62
2022/11/30 06:33:22;;;;;;;1.40;1.30;;;;;;;4.36;90.51;96775.22;5133412;27;20047;-61
2022/11/30 06:35:50;;;;;;;1.65;1.55;;;;;;;4.36;90.44;96782.97;5133510;27;20467;-61
2022/11/30 06:38:17;;;;;;;1.55;1.45;;;;;;;4.34;89.37;96788.19;5133661;27;20058;-61
2022/11/30 06:40:45;;;;;;;2.20;1.50;;;;;;;4.36;89.97;96788.16;5133503;27;20069;-61
2022/11/30 06:43:14;;;;;;;1.40;1.27;;;;;;;4.37;90.02;96782.09;5133439;27;20055;-61
2022/11/30 06:45:44;;;;;;;1.58;1.27;;;;;;;4.38;90.51;96786.41;5133431;27;20492;-61
2022/11/30 06:48:11;;;;;;;1.57;1.47;;;;;;;4.36;89.43;96789.00;5133716;27;20054;-61
2022/11/30 06:50:38;;;;;;;1.15;1.02;;;;;;;4.36;89.59;96786.41;5137088;27;20488;-61
2022/11/30 06:53:05;;;;;;;2.92;1.27;;;;;;;4.38;89.71;96800.22;5136937;27;20051;-62
2022/11/30 06:55:34;;;;;;;1.27;1.17;;;;;;;4.41;89.37;96801.91;5136990;27;20076;-61
2022/11/30 06:58:07;;;;;;;1.35;1.25;;;;;;;4.39;89.49;96799.34;5136989;27;20046;-61
2022/11/30 07:00:36;;;;;;;1.65;1.33;;;;;;;4.39;89.80;96798.47;5136916;27;20065;-61
2022/11/30 07:03:05;;;;;;;4.30;1.38;;;;;;;4.36;90.05;96794.19;5136767;27;20053;-61
2022/11/30 07:05:33;;;;;;;11.77;1.50;;;;;;;4.28;90.25;96794.25;5136766;27;20082;-61
2022/11/30 07:08:01;;;;;;;3.25;1.48;;;;;;;4.27;90.59;96799.44;5136744;27;20039;-61
2022/11/30 07:10:28;;;;;;;2.80;1.35;;;;;;;4.27;91.09;96796.84;5136722;27;20046;-62
2022/11/30 07:12:55;;;;;;;1.17;1.10;;;;;;;4.23;90.12;96793.44;5136622;27;20059;-61
2022/11/30 07:15:22;;;;;;;1.27;1.17;;;;;;;4.25;91.11;96799.44;5136688;27;20096;-61
2022/11/30 07:17:51;;;;;;;1.20;1.00;;;;;;;4.28;90.81;96804.59;5136398;27;20051;-61
2022/11/30 07:20:18;;;;;;;1.20;1.10;;;;;;;4.29;89.67;96789.94;5136570;27;20039;-61
2022/11/30 07:22:45;;;;;;;1.10;1.00;;;;;;;4.32;90.60;96797.69;5136381;27;20092;-61
2022/11/30 07:27:56;;;;;;;4.50;1.23;;;;;;;4.43;91.51;96795.84;5136426;27;20054;-62
2022/11/30 07:30:23;;;;;;;1.45;1.30;;;;;;;4.43;91.23;96798.44;5136318;27;20472;-61
2022/11/30 07:32:52;;;;;;;1.33;1.10;;;;;;;4.49;91.03;96799.25;5136159;27;20404;-61
2022/11/30 07:35:19;;;;;;;1.33;1.23;;;;;;;4.47;90.31;96796.69;5136287;27;20043;-61
2022/11/30 07:37:46;;;;;;;1.52;1.40;;;;;;;4.46;90.57;96791.50;5136165;27;20420;-61
2022/11/30 07:40:13;;;;;;;1.48;1.38;;;;;;;4.47;90.42;96794.09;5136250;27;20139;-61
2022/11/30 07:42:41;;;;;;;1.30;1.13;;;;;;;4.51;90.18;96797.50;5136140;27;20093;-62
2022/11/30 07:45:09;;;;;;;2.28;1.30;;;;;;;4.55;90.63;96792.28;5136057;27;20579;-61
2022/11/30 07:47:36;;;;;;;1.98;1.40;;;;;;;4.59;90.24;96793.13;5135982;27;20092;-62
2022/11/30 07:50:05;;;;;;;1.17;1.08;;;;;;;4.60;90.36;96794.81;5135946;27;20050;-61
2022/11/30 07:52:32;;;;;;;1.25;0.93;;;;;;;4.55;89.48;96794.03;5135868;27;20138;-62
2022/11/30 07:54:59;;;;;;;2.47;1.50;;;;;;;4.53;90.32;96781.09;5135854;27;20138;-62
2022/11/30 07:57:27;;;;;;;1.98;1.33;;;;;;;4.52;89.81;96788.88;5135855;27;20050;-61
2022/11/30 07:59:54;;;;;;;1.23;1.00;;;;;;;4.51;90.45;96800.94;5135469;27;20480;-62
2022/11/30 08:02:21;;;;;;;2.40;1.30;;;;;;;4.54;89.63;96798.34;5135831;27;20043;-62
2022/11/30 08:04:51;;;;;;;2.67;1.08;;;;;;;4.53;89.63;96807.00;5135639;27;20492;-62
2022/11/30 08:07:19;;;;;;;1.42;1.33;;;;;;;4.51;89.46;96808.72;5135586;27;20126;-61
2022/11/30 08:09:47;;;;;;;1.55;1.40;;;;;;;4.50;88.92;96812.19;5135527;27;20049;-61
2022/11/30 08:12:14;;;;;;;1.25;1.15;;;;;;;4.61;89.91;96812.06;5135328;27;20467;-61
2022/11/30 08:14:42;;;;;;;1.38;1.00;;;;;;;4.73;90.11;96813.69;5135548;27;20142;-62
2022/11/30 08:17:09;;;;;;;1.10;1.00;;;;;;;4.74;88.08;96812.81;5135392;27;20385;-61
2022/11/30 08:19:37;;;;;;;1.17;1.08;;;;;;;4.76;87.70;96820.59;5135160;27;20120;-61
2022/11/30 08:22:04;;;;;;;1.17;1.08;;;;;;;4.79;87.82;96823.16;5135214;27;20049;-61
2022/11/30 08:24:32;;;;;;;0.88;0.88;;;;;;;4.80;87.49;96824.88;5135159;27;20051;-61
2022/11/30 08:26:59;;;;;;;1.42;1.30;;;;;;;4.84;87.70;96820.53;5135143;27;20057;-61
2022/11/30 08:29:26;;;;;;;1.70;1.20;;;;;;;4.84;87.35;96818.75;5135108;27;20057;-61
2022/11/30 08:31:54;;;;;;;1.40;1.30;;;;;;;4.86;88.44;96819.63;5135099;27;20058;-61
2022/11/30 08:34:21;;;;;;;1.30;1.20;;;;;;;4.88;88.19;96817.00;5135132;27;20047;-61
2022/11/30 08:36:48;;;;;;;1.42;1.33;;;;;;;4.90;88.05;96816.13;5134962;27;20040;-61
2022/11/30 08:39:15;;;;;;;1.95;1.50;;;;;;;4.90;88.41;96815.25;5135047;27;20484;-62
2022/11/30 08:41:44;;;;;;;1.30;1.20;;;;;;;4.89;87.76;96811.81;5135055;27;20078;-61
2022/11/30 08:44:11;;;;;;;1.42;1.17;;;;;;;4.84;87.61;96811.00;5134848;27;20050;-62
2022/11/30 08:46:38;;;;;;;1.05;0.98;;;;;;;4.79;89.03;96803.25;5134782;27;20057;-61
2022/11/30 08:49:05;;;;;;;1.50;1.30;;;;;;;4.78;89.32;96791.19;5134763;27;20039;-62
2022/11/30 08:51:32;;;;;;;1.50;1.40;;;;;;;4.78;90.15;96788.59;5134934;27;20051;-61
2022/11/30 08:53:59;;;;;;;1.77;1.42;;;;;;;4.70;89.94;96790.41;5134751;27;20099;-62
2022/11/30 08:56:26;;;;;;;1.58;1.48;;;;;;;4.71;90.74;96773.97;5134681;27;20051;-61
2022/11/30 08:58:56;;;;;;;2.03;1.42;;;;;;;4.71;91.11;96784.34;5134653;27;20079;-62
2022/11/30 09:01:24;;;;;;;1.58;1.40;;;;;;;4.62;90.23;96768.88;5134527;27;20054;-61
2022/11/30 09:03:54;;;;;;;3.92;1.50;;;;;;;4.62;89.96;96774.94;5134459;27;20070;-61
2022/11/30 09:06:23;;;;;;;1.55;1.45;;;;;;;4.53;88.89;96783.66;5134411;27;20055;-61
2022/11/30 09:08:52;;;;;;;1.48;1.38;;;;;;;4.54;89.58;96779.31;5134479;27;20138;-61
2022/11/30 09:11:22;;;;;;;1.65;1.33;;;;;;;4.50;90.33;96782.84;5133838;27;20043;-62
2022/11/30 09:13:50;;;;;;;1.83;1.58;;;;;;;4.58;89.83;96790.53;5134356;27;20054;-61
2022/11/30 09:16:20;;;;;;;1.65;1.33;;;;;;;4.59;90.22;96789.66;5134342;27;20039;-62
2022/11/30 09:18:48;;;;;;;2.25;1.02;;;;;;;4.63;89.63;96793.91;5134227;27;20093;-61
2022/11/30 09:21:17;;;;;;;1.80;1.20;;;;;;;4.68;89.43;96785.25;5134400;27;20051;-62
2022/11/30 09:23:44;;;;;;;1.48;1.20;;;;;;;4.60;88.95;96779.28;5134239;27;20096;-62
2022/11/30 09:26:15;;;;;;;1.33;1.23;;;;;;;4.62;90.41;96780.13;5134143;27;20049;-62
2022/11/30 09:28:42;;;;;;;2.15;1.50;;;;;;;4.61;90.19;96780.97;5134252;27;20084;-61
2022/11/30 09:31:13;;;;;;;1.05;1.02;;;;;;;4.64;89.33;96782.69;5134450;27;20047;-62
2022/11/30 09:33:42;;;;;;;1.10;1.00;;;;;;;4.65;89.36;96779.22;5134029;27;20553;-61
2022/11/30 09:36:12;;;;;;;1.55;1.35;;;;;;;4.64;89.49;96780.09;5134074;27;20441;-61
2022/11/30 09:38:41;;;;;;;1.15;1.05;;;;;;;4.65;88.97;96790.47;5134116;27;20043;-62
2022/11/30 09:41:36;;;;;;;1.10;0.93;;;;;;;4.62;89.43;96777.53;5134188;27;20104;-61
2022/11/30 09:44:09;;;;;;;2.05;0.95;;;;;;;4.56;89.01;96767.22;5134066;27;20071;-61
2022/11/30 09:46:41;;;;;;;1.17;0.90;;;;;;;4.58;89.67;96769.81;5134098;27;20147;-61
2022/11/30 09:49:17;;;;;;;1.52;1.10;;;;;;;4.58;89.01;96768.09;5133881;27;20549;-62
2022/11/30 09:51:46;;;;;;;1.33;0.85;;;;;;;4.58;89.21;96765.50;5133936;27;20432;-61
2022/11/30 09:54:16;;;;;;;2.58;0.88;;;;;;;4.54;88.60;96761.19;5133881;27;20133;-61
2022/11/30 09:56:44;;;;;;;0.90;0.90;;;;;;;4.50;89.77;96756.91;5133955;27;20147;-61
2022/11/30 09:59:18;;;;;;;1.30;1.20;;;;;;;4.51;90.15;96758.63;5133858;27;20047;-61
2022/11/30 10:01:47;;;;;;;1.15;0.98;;;;;;;4.45;89.38;96758.72;5133848;27;20050;-62
2022/11/30 10:04:22;;;;;;;0.90;0.90;;;;;;;4.43;89.79;96753.56;5133827;27;20047;-61
2022/11/30 10:07:02;;;;;;;1.27;1.17;;;;;;;4.44;89.99;96755.25;5133806;27;20048;-62
2022/11/30 10:09:48;;;;;;;1.52;1.20;;;;;;;4.50;91.22;96754.31;5133745;27;20051;-63
2022/11/30 10:12:23;;;;;;;1.25;1.10;;;;;;;4.54;90.72;96756.88;5133661;27;20043;-62
2022/11/30 10:15:08;;;;;;;0.88;0.88;;;;;;;4.52;89.36;96761.19;5133623;27;20039;-61
2022/11/30 10:17:44;;;;;;;0.95;0.90;;;;;;;4.49;89.96;96758.63;5133591;27;20115;-62
2022/11/30 10:20:26;;;;;;;1.25;0.80;;;;;;;4.49;90.57;96761.22;5133769;27;20408;-62
2022/11/30 10:23:05;;;;;;;1.33;1.23;;;;;;;4.57;92.02;96755.97;5135033;27;20100;-62
2022/11/30 10:25:42;;;;;;;1.67;0.98;;;;;;;4.57;89.56;96768.09;5137581;27;20065;-61
2022/11/30 10:28:17;;;;;;;1.05;0.80;;;;;;;4.60;90.98;96762.88;5137580;27;20043;-61
2022/11/30 10:30:46;;;;;;;2.78;0.93;;;;;;;4.49;91.47;96752.63;5137461;27;20043;-61
2022/11/30 10:33:18;;;;;;;1.40;1.30;;;;;;;4.52;91.13;96756.03;5137331;27;20055;-62
2022/11/30 10:35:50;;;;;;;0.90;0.90;;;;;;;4.53;90.66;96749.13;5137330;27;20047;-61
2022/11/30 10:38:24;;;;;;;0.80;0.80;;;;;;;4.53;90.95;96746.53;5137262;27;20071;-61
2022/11/30 10:40:56;;;;;;;0.70;0.70;;;;;;;4.55;91.44;96743.03;5137243;27;20090;-61
2022/11/30 10:43:29;;;;;;;2.08;1.00;;;;;;;4.58;90.86;96752.53;5137213;27;20069;-61
2022/11/30 10:45:57;;;;;;;1.85;0.98;;;;;;;4.61;90.70;96747.28;5137107;27;20039;-61
2022/11/30 10:48:31;;;;;;;3.13;1.02;;;;;;;4.64;90.87;96746.41;5137085;27;20407;-62
2022/11/30 10:51:02;;;;;;;0.80;0.80;;;;;;;4.68;89.47;96745.50;5137124;27;20098;-61
2022/11/30 10:53:29;;;;;;;1.65;1.00;;;;;;;4.70;90.98;96751.53;5136955;27;20043;-61
2022/11/30 10:56:01;;;;;;;1.38;1.10;;;;;;;4.80;91.70;96747.97;5136897;27;20054;-61
2022/11/30 10:58:34;;;;;;;2.08;1.20;;;;;;;4.80;90.41;96740.19;5136962;27;20052;-61
2022/11/30 11:01:05;;;;;;;1.20;1.02;;;;;;;4.82;89.93;96745.34;5136985;27;20051;-61
2022/11/30 11:03:33;;;;;;;1.13;0.98;;;;;;;4.85;90.42;96747.88;5136936;27;20448;-61
2022/11/30 11:06:22;;;;;;;1.48;0.90;;;;;;;4.88;90.87;96754.78;5136822;27;20051;-61
2022/11/30 11:08:54;;;;;;;1.23;1.13;;;;;;;4.85;89.79;96747.03;5136784;27;20138;-61
2022/11/30 11:11:33;;;;;;;1.17;1.08;;;;;;;4.79;89.93;96753.16;5136619;27;20458;-61
2022/11/30 11:14:20;;;;;;;0.68;0.68;;;;;;;4.83;90.56;96741.00;5136614;27;20523;-61
2022/11/30 11:16:54;;;;;;;1.95;1.00;;;;;;;4.79;90.38;96740.22;5136595;27;20039;-62
2022/11/30 11:19:31;;;;;;;0.90;0.90;;;;;;;4.87;90.17;96751.31;5136510;27;20088;-62
2022/11/30 11:22:02;;;;;;;1.35;0.93;;;;;;;4.90;90.14;96753.88;5136583;27;20411;-61
2022/11/30 11:24:30;;;;;;;1.27;1.17;;;;;;;4.89;89.67;96751.31;5136393;27;20126;-61
2022/11/30 11:26:58;;;;;;;0.85;0.70;;;;;;;4.89;89.69;96748.72;5136434;27;20185;-61
2022/11/30 11:29:33;;;;;;;1.02;0.93;;;;;;;4.97;89.93;96748.63;5136387;27;20039;-61
2022/11/30 11:32:17;;;;;;;0.98;0.93;;;;;;;5.04;89.43;96758.03;5136435;27;20079;-61
2022/11/30 11:34:44;;;;;;;1.13;0.70;;;;;;;5.05;88.08;96755.44;5135659;27;20047;-62
2022/11/30 11:37:19;;;;;;;0.88;0.88;;;;;;;5.06;88.59;96751.97;5136267;27;20404;-61
2022/11/30 11:39:58;;;;;;;0.80;0.80;;;;;;;5.09;89.37;96760.59;5136266;27;20086;-62
2022/11/30 11:42:28;;;;;;;1.08;0.90;;;;;;;5.06;89.73;96761.50;5136029;27;20133;-62
2022/11/30 11:44:58;;;;;;;0.77;0.77;;;;;;;5.12;88.99;96756.19;5136174;27;20092;-61
2022/11/30 11:47:28;;;;;;;0.90;0.90;;;;;;;5.03;87.14;96770.16;5136022;27;20079;-61
2022/11/30 11:50:22;;;;;;;0.70;0.70;;;;;;;5.05;88.44;96758.03;5135960;27;20087;-62
2022/11/30 11:53:14;;;;;;;0.80;0.80;;;;;;;5.08;89.58;96764.06;5135737;27;20130;-61
2022/11/30 11:55:43;;;;;;;0.80;0.80;;;;;;;5.14;89.67;96774.34;5135857;27;20096;-61